sensor_id;sensor_type;location;lat;lon;timestamp;pressure;altitude;pressure_sealevel;temperature;humidity
29239;BME280;16267;48.194;11.546;2023-01-16T00:01:18;95022.16;;;3.27;66.60
29239;BME280;16267;48.194;11.546;2023-01-16T00:03:44;95014.56;;;3.18;64.67
29239;BME280;16267;48.194;11.546;2023-01-16T00:06:10;95014.19;;;3.16;64.61
29239;BME280;16267;48.194;11.546;2023-01-16T00:08:35;95014.94;;;3.17;65.28
29239;BME280;16267;48.194;11.546;2023-01-16T00:11:01;95012.66;;;3.19;65.12
29239;BME280;16267;48.194;11.546;2023-01-16T00:13:27;95013.03;;;3.06;64.69
29239;BME280;16267;48.194;11.546;2023-01-16T00:15:53;95005.84;;;3.10;65.65
29239;BME280;16267;48.194;11.546;2023-01-16T00:18:18;95006.97;;;3.13;65.25
29239;BME280;16267;48.194;11.546;2023-01-16T00:20:47;95010.00;;;3.19;65.58
29239;BME280;16267;48.194;11.546;2023-01-16T00:23:16;94994.50;;;3.21;65.46
29239;BME280;16267;48.194;11.546;2023-01-16T00:25:43;94993.72;;;3.20;64.72
29239;BME280;16267;48.194;11.546;2023-01-16T00:28:11;94992.97;;;3.20;64.79
29239;BME280;16267;48.194;11.546;2023-01-16T00:30:37;94990.31;;;3.16;64.48
29239;BME280;16267;48.194;11.546;2023-01-16T00:33:04;94987.28;;;3.18;65.16
29239;BME280;16267;48.194;11.546;2023-01-16T00:35:31;94986.94;;;3.19;64.73
29239;BME280;16267;48.194;11.546;2023-01-16T00:37:57;94974.81;;;3.22;64.78
29239;BME280;16267;48.194;11.546;2023-01-16T00:40:23;94971.38;;;3.14;64.37
29239;BME280;16267;48.194;11.546;2023-01-16T00:42:49;94960.03;;;3.13;64.57
29239;BME280;16267;48.194;11.546;2023-01-16T00:45:15;94956.22;;;3.18;65.38
29239;BME280;16267;48.194;11.546;2023-01-16T00:47:41;94962.28;;;3.19;64.47
29239;BME280;16267;48.194;11.546;2023-01-16T00:50:07;94958.13;;;3.14;64.20
29239;BME280;16267;48.194;11.546;2023-01-16T00:52:33;94955.84;;;3.09;64.20
29239;BME280;16267;48.194;11.546;2023-01-16T00:54:59;94957.72;;;2.94;64.29
29239;BME280;16267;48.194;11.546;2023-01-16T00:57:25;94954.66;;;2.92;65.44
29239;BME280;16267;48.194;11.546;2023-01-16T00:59:51;94949.34;;;2.85;64.99
29239;BME280;16267;48.194;11.546;2023-01-16T01:02:17;94938.38;;;2.86;65.34
29239;BME280;16267;48.194;11.546;2023-01-16T01:04:43;94934.97;;;2.86;66.06
29239;BME280;16267;48.194;11.546;2023-01-16T01:07:09;94931.97;;;2.91;65.80
29239;BME280;16267;48.194;11.546;2023-01-16T01:09:35;94931.56;;;2.93;65.63
29239;BME280;16267;48.194;11.546;2023-01-16T01:12:00;94928.16;;;2.96;65.71
29239;BME280;16267;48.194;11.546;2023-01-16T01:14:27;94925.16;;;3.01;65.64
29239;BME280;16267;48.194;11.546;2023-01-16T01:16:53;94923.28;;;3.05;66.19
29239;BME280;16267;48.194;11.546;2023-01-16T01:19:19;94908.88;;;3.09;66.27
29239;BME280;16267;48.194;11.546;2023-01-16T01:21:45;94908.13;;;3.09;65.56
29239;BME280;16267;48.194;11.546;2023-01-16T01:24:11;94906.59;;;3.04;64.97
29239;BME280;16267;48.194;11.546;2023-01-16T01:26:37;94912.28;;;3.03;65.58
29239;BME280;16267;48.194;11.546;2023-01-16T01:29:03;94903.56;;;3.02;65.44
29239;BME280;16267;48.194;11.546;2023-01-16T01:31:30;94900.91;;;2.99;65.12
29239;BME280;16267;48.194;11.546;2023-01-16T01:33:55;94891.03;;;2.99;65.85
29239;BME280;16267;48.194;11.546;2023-01-16T01:36:21;94892.19;;;2.84;65.35
29239;BME280;16267;48.194;11.546;2023-01-16T01:38:47;94900.50;;;2.86;65.56
29239;BME280;16267;48.194;11.546;2023-01-16T01:41:16;94888.78;;;2.90;66.25
29239;BME280;16267;48.194;11.546;2023-01-16T01:43:53;94884.97;;;2.84;66.16
29239;BME280;16267;48.194;11.546;2023-01-16T01:46:30;94883.84;;;2.85;66.05
29239;BME280;16267;48.194;11.546;2023-01-16T01:51:46;94882.31;;;2.88;66.38
29239;BME280;16267;48.194;11.546;2023-01-16T01:54:22;94868.31;;;2.84;66.27
29239;BME280;16267;48.194;11.546;2023-01-16T01:56:59;94860.75;;;2.89;67.01
29239;BME280;16267;48.194;11.546;2023-01-16T01:59:33;94849.38;;;2.85;66.15
29239;BME280;16267;48.194;11.546;2023-01-16T02:02:02;94839.16;;;2.87;66.56
29239;BME280;16267;48.194;11.546;2023-01-16T02:04:33;94831.63;;;2.86;66.21
29239;BME280;16267;48.194;11.546;2023-01-16T02:07:04;94830.47;;;2.90;66.68
29239;BME280;16267;48.194;11.546;2023-01-16T02:09:31;94819.13;;;2.86;65.86
29239;BME280;16267;48.194;11.546;2023-01-16T02:12:07;94818.34;;;2.79;65.74
29239;BME280;16267;48.194;11.546;2023-01-16T02:14:38;94813.41;;;2.74;66.13
29239;BME280;16267;48.194;11.546;2023-01-16T02:17:10;94805.09;;;2.68;66.25
29239;BME280;16267;48.194;11.546;2023-01-16T02:43:52;94765.38;;;2.72;67.65
29239;BME280;16267;48.194;11.546;2023-01-16T02:49:38;94752.47;;;2.81;67.03
29239;BME280;16267;48.194;11.546;2023-01-16T02:53:09;94748.69;;;2.85;67.08
29239;BME280;16267;48.194;11.546;2023-01-16T02:57:52;94733.16;;;2.95;67.37
29239;BME280;16267;48.194;11.546;2023-01-16T03:00:21;94728.97;;;2.94;66.17
29239;BME280;16267;48.194;11.546;2023-01-16T03:02:47;94723.31;;;2.88;65.14
29239;BME280;16267;48.194;11.546;2023-01-16T03:05:13;94722.94;;;2.89;65.43
29239;BME280;16267;48.194;11.546;2023-01-16T03:08:23;94724.84;;;2.93;66.40
29239;BME280;16267;48.194;11.546;2023-01-16T03:17:14;94703.63;;;3.00;65.97
29239;BME280;16267;48.194;11.546;2023-01-16T03:22:41;94683.16;;;3.04;65.34
29239;BME280;16267;48.194;11.546;2023-01-16T03:30:54;94666.13;;;3.08;64.58
29239;BME280;16267;48.194;11.546;2023-01-16T03:34:18;94663.47;;;3.08;65.03
29239;BME280;16267;48.194;11.546;2023-01-16T03:37:06;94658.91;;;3.09;65.19
29239;BME280;16267;48.194;11.546;2023-01-16T03:39:45;94655.50;;;3.08;64.60
29239;BME280;16267;48.194;11.546;2023-01-16T03:42:41;94649.47;;;3.08;64.41
29239;BME280;16267;48.194;11.546;2023-01-16T03:45:16;94640.72;;;3.07;64.34
29239;BME280;16267;48.194;11.546;2023-01-16T03:47:54;94631.66;;;3.05;64.26
29239;BME280;16267;48.194;11.546;2023-01-16T03:50:25;94628.25;;;3.04;64.58
29239;BME280;16267;48.194;11.546;2023-01-16T03:52:57;94627.09;;;3.02;64.97
29239;BME280;16267;48.194;11.546;2023-01-16T03:58:28;94611.97;;;2.99;64.64
29239;BME280;16267;48.194;11.546;2023-01-16T04:01:45;94601.00;;;3.00;65.11
29239;BME280;16267;48.194;11.546;2023-01-16T04:04:37;94597.59;;;3.00;65.62
29239;BME280;16267;48.194;11.546;2023-01-16T04:07:12;94597.94;;;3.02;65.50
29239;BME280;16267;48.194;11.546;2023-01-16T04:09:57;94592.66;;;3.02;65.25
29239;BME280;16267;48.194;11.546;2023-01-16T04:12:33;94590.00;;;3.02;65.86
29239;BME280;16267;48.194;11.546;2023-01-16T04:15:07;94586.22;;;3.03;65.93
29239;BME280;16267;48.194;11.546;2023-01-16T04:17:35;94577.88;;;3.04;65.63
29239;BME280;16267;48.194;11.546;2023-01-16T04:20:03;94569.56;;;3.02;65.50
29239;BME280;16267;48.194;11.546;2023-01-16T04:22:31;94563.16;;;3.00;65.12
29239;BME280;16267;48.194;11.546;2023-01-16T04:25:00;94551.41;;;2.94;65.36
29239;BME280;16267;48.194;11.546;2023-01-16T04:27:28;94546.13;;;2.90;65.31
29239;BME280;16267;48.194;11.546;2023-01-16T04:29:53;94537.81;;;2.88;65.24
29239;BME280;16267;48.194;11.546;2023-01-16T04:32:19;94519.31;;;2.77;65.75
29239;BME280;16267;48.194;11.546;2023-01-16T04:34:45;94518.19;;;2.75;66.02
29239;BME280;16267;48.194;11.546;2023-01-16T04:37:14;94509.13;;;2.65;66.02
29239;BME280;16267;48.194;11.546;2023-01-16T04:39:40;94511.78;;;2.65;66.83
29239;BME280;16267;48.194;11.546;2023-01-16T04:42:07;94499.69;;;2.60;66.81
29239;BME280;16267;48.194;11.546;2023-01-16T04:44:33;94486.84;;;2.59;66.68
29239;BME280;16267;48.194;11.546;2023-01-16T04:46:59;94475.50;;;2.58;66.41
29239;BME280;16267;48.194;11.546;2023-01-16T04:49:25;94478.19;;;2.44;67.07
29239;BME280;16267;48.194;11.546;2023-01-16T04:51:51;94468.75;;;2.39;67.82
29239;BME280;16267;48.194;11.546;2023-01-16T04:54:18;94466.50;;;2.27;67.71
29239;BME280;16267;48.194;11.546;2023-01-16T04:56:44;94463.47;;;2.29;67.84
29239;BME280;16267;48.194;11.546;2023-01-16T04:59:11;94463.47;;;2.32;67.72
29239;BME280;16267;48.194;11.546;2023-01-16T05:01:39;94459.69;;;2.37;67.66
29239;BME280;16267;48.194;11.546;2023-01-16T05:04:07;94461.56;;;2.40;67.09
29239;BME280;16267;48.194;11.546;2023-01-16T05:06:34;94452.09;;;2.42;67.77
29239;BME280;16267;48.194;11.546;2023-01-16T05:09:01;94436.94;;;2.43;67.16
29239;BME280;16267;48.194;11.546;2023-01-16T05:11:28;94433.19;;;2.40;67.73
29239;BME280;16267;48.194;11.546;2023-01-16T05:13:54;94436.22;;;2.35;67.66
29239;BME280;16267;48.194;11.546;2023-01-16T05:16:19;94423.75;;;2.32;67.89
29239;BME280;16267;48.194;11.546;2023-01-16T05:18:45;94419.97;;;2.33;68.29
29239;BME280;16267;48.194;11.546;2023-01-16T05:21:11;94413.56;;;2.31;67.80
29239;BME280;16267;48.194;11.546;2023-01-16T05:23:37;94412.81;;;2.30;68.00
29239;BME280;16267;48.194;11.546;2023-01-16T05:26:04;94413.16;;;2.32;68.03
29239;BME280;16267;48.194;11.546;2023-01-16T05:28:31;94405.59;;;2.27;68.04
29239;BME280;16267;48.194;11.546;2023-01-16T05:30:57;94408.66;;;2.26;67.99
29239;BME280;16267;48.194;11.546;2023-01-16T05:33:23;94405.25;;;2.25;68.35
29239;BME280;16267;48.194;11.546;2023-01-16T05:35:49;94390.53;;;2.17;68.75
29239;BME280;16267;48.194;11.546;2023-01-16T05:38:16;94386.78;;;2.11;68.70
29239;BME280;16267;48.194;11.546;2023-01-16T05:40:44;94383.00;;;2.08;69.39
29239;BME280;16267;48.194;11.546;2023-01-16T05:43:10;94380.72;;;2.10;69.70
29239;BME280;16267;48.194;11.546;2023-01-16T05:45:36;94380.72;;;2.14;69.17
29239;BME280;16267;48.194;11.546;2023-01-16T05:48:02;94369.38;;;2.13;68.76
29239;BME280;16267;48.194;11.546;2023-01-16T05:50:28;94366.00;;;2.09;68.34
29239;BME280;16267;48.194;11.546;2023-01-16T05:52:54;94366.75;;;2.10;68.84
29239;BME280;16267;48.194;11.546;2023-01-16T05:55:19;94361.06;;;2.08;68.67
29239;BME280;16267;48.194;11.546;2023-01-16T05:57:45;94347.84;;;2.04;68.60
29239;BME280;16267;48.194;11.546;2023-01-16T06:00:11;94349.38;;;2.01;69.67
29239;BME280;16267;48.194;11.546;2023-01-16T06:02:37;94342.59;;;2.00;69.41
29239;BME280;16267;48.194;11.546;2023-01-16T06:05:04;94332.78;;;1.97;69.92
29239;BME280;16267;48.194;11.546;2023-01-16T06:07:29;94326.38;;;1.88;70.15
29239;BME280;16267;48.194;11.546;2023-01-16T06:09:55;94326.00;;;1.89;70.62
29239;BME280;16267;48.194;11.546;2023-01-16T06:12:21;94321.44;;;1.93;70.45
29239;BME280;16267;48.194;11.546;2023-01-16T06:14:47;94302.94;;;1.90;70.57
29239;BME280;16267;48.194;11.546;2023-01-16T06:17:13;94307.47;;;1.89;70.71
29239;BME280;16267;48.194;11.546;2023-01-16T06:19:40;94296.53;;;1.84;70.93
29239;BME280;16267;48.194;11.546;2023-01-16T06:22:06;94284.78;;;1.88;71.34
29239;BME280;16267;48.194;11.546;2023-01-16T06:24:32;94274.22;;;1.88;70.77
29239;BME280;16267;48.194;11.546;2023-01-16T06:26:58;94268.16;;;1.91;70.94
29239;BME280;16267;48.194;11.546;2023-01-16T06:29:24;94257.59;;;1.91;70.77
29239;BME280;16267;48.194;11.546;2023-01-16T06:31:50;94259.81;;;1.96;70.68
29239;BME280;16267;48.194;11.546;2023-01-16T06:34:17;94256.38;;;1.99;70.38
29239;BME280;16267;48.194;11.546;2023-01-16T06:36:42;94248.44;;;2.03;70.69
29239;BME280;16267;48.194;11.546;2023-01-16T06:39:11;94241.25;;;2.04;70.13
29239;BME280;16267;48.194;11.546;2023-01-16T06:41:38;94236.34;;;2.06;70.34
29239;BME280;16267;48.194;11.546;2023-01-16T06:44:04;94234.03;;;2.08;70.43
29239;BME280;16267;48.194;11.546;2023-01-16T06:46:30;94220.06;;;2.07;70.04
29239;BME280;16267;48.194;11.546;2023-01-16T06:48:55;94207.19;;;2.09;70.47
29239;BME280;16267;48.194;11.546;2023-01-16T06:51:21;94201.53;;;2.11;70.33
29239;BME280;16267;48.194;11.546;2023-01-16T06:53:47;94189.03;;;2.11;69.94
29239;BME280;16267;48.194;11.546;2023-01-16T06:56:13;94188.63;;;2.13;70.46
29239;BME280;16267;48.194;11.546;2023-01-16T06:58:38;94178.78;;;2.13;70.30
29239;BME280;16267;48.194;11.546;2023-01-16T07:01:04;94169.72;;;2.14;71.01
29239;BME280;16267;48.194;11.546;2023-01-16T07:03:32;94167.09;;;2.14;71.16
29239;BME280;16267;48.194;11.546;2023-01-16T07:05:58;94156.88;;;2.16;71.50
29239;BME280;16267;48.194;11.546;2023-01-16T07:08:24;94155.34;;;2.15;71.37
29239;BME280;16267;48.194;11.546;2023-01-16T07:10:49;94147.03;;;2.17;71.54
29239;BME280;16267;48.194;11.546;2023-01-16T07:13:15;94140.59;;;2.18;71.63
29239;BME280;16267;48.194;11.546;2023-01-16T07:15:46;94136.03;;;2.18;71.38
29239;BME280;16267;48.194;11.546;2023-01-16T07:18:31;94129.63;;;2.19;71.50
29239;BME280;16267;48.194;11.546;2023-01-16T07:21:36;94123.19;;;2.20;71.70
29239;BME280;16267;48.194;11.546;2023-01-16T07:24:36;94125.06;;;2.20;71.34
29239;BME280;16267;48.194;11.546;2023-01-16T07:27:04;94116.72;;;2.21;71.54
29239;BME280;16267;48.194;11.546;2023-01-16T07:29:33;94117.09;;;2.23;71.59
29239;BME280;16267;48.194;11.546;2023-01-16T07:32:00;94111.06;;;2.23;71.40
29239;BME280;16267;48.194;11.546;2023-01-16T07:34:27;94105.00;;;2.22;71.16
29239;BME280;16267;48.194;11.546;2023-01-16T07:36:52;94098.56;;;2.23;71.51
29239;BME280;16267;48.194;11.546;2023-01-16T07:39:18;94096.28;;;2.26;71.84
29239;BME280;16267;48.194;11.546;2023-01-16T07:41:44;94084.94;;;2.25;70.66
29239;BME280;16267;48.194;11.546;2023-01-16T07:44:10;94077.38;;;2.23;71.18
29239;BME280;16267;48.194;11.546;2023-01-16T07:46:36;94064.53;;;2.26;70.85
29239;BME280;16267;48.194;11.546;2023-01-16T07:49:02;94056.94;;;2.28;71.03
29239;BME280;16267;48.194;11.546;2023-01-16T07:51:28;94051.66;;;2.28;71.02
29239;BME280;16267;48.194;11.546;2023-01-16T07:53:53;94048.59;;;2.29;71.86
29239;BME280;16267;48.194;11.546;2023-01-16T07:56:19;94044.81;;;2.30;71.60
29239;BME280;16267;48.194;11.546;2023-01-16T07:58:45;94031.19;;;2.32;71.80
29239;BME280;16267;48.194;11.546;2023-01-16T08:01:11;94029.28;;;2.32;71.75
29239;BME280;16267;48.194;11.546;2023-01-16T08:03:38;94017.56;;;2.30;71.51
29239;BME280;16267;48.194;11.546;2023-01-16T08:06:04;94015.28;;;2.32;71.96
29239;BME280;16267;48.194;11.546;2023-01-16T08:08:30;94003.53;;;2.33;70.97
29239;BME280;16267;48.194;11.546;2023-01-16T08:10:59;93996.00;;;2.31;71.17
29239;BME280;16267;48.194;11.546;2023-01-16T08:13:45;93991.47;;;2.32;71.71
29239;BME280;16267;48.194;11.546;2023-01-16T08:16:11;93991.84;;;2.34;71.48
29239;BME280;16267;48.194;11.546;2023-01-16T08:18:37;93992.94;;;2.36;71.77
29239;BME280;16267;48.194;11.546;2023-01-16T08:21:03;93987.28;;;2.34;71.54
29239;BME280;16267;48.194;11.546;2023-01-16T08:23:28;93980.09;;;2.35;71.53
29239;BME280;16267;48.194;11.546;2023-01-16T08:25:54;93980.44;;;2.37;72.24
29239;BME280;16267;48.194;11.546;2023-01-16T08:28:20;93975.09;;;2.40;71.96
29239;BME280;16267;48.194;11.546;2023-01-16T08:30:46;93970.59;;;2.37;71.78
29239;BME280;16267;48.194;11.546;2023-01-16T08:33:11;93958.13;;;2.38;71.68
29239;BME280;16267;48.194;11.546;2023-01-16T08:35:37;93954.66;;;2.41;72.06
29239;BME280;16267;48.194;11.546;2023-01-16T08:38:03;93956.88;;;2.46;72.16
29239;BME280;16267;48.194;11.546;2023-01-16T08:40:29;93939.44;;;2.49;71.59
29239;BME280;16267;48.194;11.546;2023-01-16T08:42:55;93927.69;;;2.53;71.90
29239;BME280;16267;48.194;11.546;2023-01-16T08:45:39;93921.22;;;2.54;72.47
29239;BME280;16267;48.194;11.546;2023-01-16T08:48:25;93911.72;;;2.57;71.83
29239;BME280;16267;48.194;11.546;2023-01-16T08:51:19;93901.50;;;2.59;72.21
29239;BME280;16267;48.194;11.546;2023-01-16T08:53:52;93900.69;;;2.62;71.94
29239;BME280;16267;48.194;11.546;2023-01-16T08:56:20;93883.25;;;2.64;72.36
29239;BME280;16267;48.194;11.546;2023-01-16T08:58:47;93881.72;;;2.67;72.40
29239;BME280;16267;48.194;11.546;2023-01-16T09:01:13;93873.31;;;2.72;72.89
29239;BME280;16267;48.194;11.546;2023-01-16T09:03:38;93867.22;;;2.75;72.52
29239;BME280;16267;48.194;11.546;2023-01-16T09:06:04;93860.72;;;2.80;71.93
29239;BME280;16267;48.194;11.546;2023-01-16T09:08:30;93856.13;;;2.84;72.47
29239;BME280;16267;48.194;11.546;2023-01-16T09:10:56;93844.31;;;2.88;72.38
29239;BME280;16267;48.194;11.546;2023-01-16T09:13:40;93841.09;;;3.01;72.70
29239;BME280;16267;48.194;11.546;2023-01-16T09:16:21;93837.25;;;3.05;71.44
29239;BME280;16267;48.194;11.546;2023-01-16T09:18:48;93826.97;;;3.07;71.14
29239;BME280;16267;48.194;11.546;2023-01-16T09:21:15;93829.13;;;3.16;71.80
29239;BME280;16267;48.194;11.546;2023-01-16T09:23:41;93817.53;;;3.30;71.43
29239;BME280;16267;48.194;11.546;2023-01-16T09:26:07;93810.63;;;3.56;70.21
29239;BME280;16267;48.194;11.546;2023-01-16T09:28:33;93806.75;;;3.61;68.88
29239;BME280;16267;48.194;11.546;2023-01-16T09:30:59;93801.66;;;3.70;69.12
29239;BME280;16267;48.194;11.546;2023-01-16T09:33:24;93791.63;;;3.97;68.53
29239;BME280;16267;48.194;11.546;2023-01-16T09:35:50;93791.38;;;4.28;68.70
29239;BME280;16267;48.194;11.546;2023-01-16T09:38:16;93788.59;;;4.68;65.48
29239;BME280;16267;48.194;11.546;2023-01-16T09:40:53;93787.19;;;4.63;64.44
29239;BME280;16267;48.194;11.546;2023-01-16T09:43:40;93770.41;;;4.50;64.11
29239;BME280;16267;48.194;11.546;2023-01-16T09:46:13;93776.56;;;4.63;64.80
29239;BME280;16267;48.194;11.546;2023-01-16T09:48:55;93766.91;;;4.69;63.19
29239;BME280;16267;48.194;11.546;2023-01-16T09:51:38;93756.88;;;4.61;62.79
29239;BME280;16267;48.194;11.546;2023-01-16T09:54:16;93752.47;;;4.54;63.48
29239;BME280;16267;48.194;11.546;2023-01-16T09:57:11;93746.91;;;4.48;nan
29239;BME280;16267;48.194;11.546;2023-01-16T09:59:57;93736.13;;;4.56;63.04
29239;BME280;16267;48.194;11.546;2023-01-16T10:02:32;93718.34;;;4.53;63.42
29239;BME280;16267;48.194;11.546;2023-01-16T10:05:02;93710.22;;;4.43;62.48
29239;BME280;16267;48.194;11.546;2023-01-16T10:10:38;93696.84;;;4.31;62.61
29239;BME280;16267;48.194;11.546;2023-01-16T10:28:12;93614.50;;;5.47;61.00
29239;BME280;16267;48.194;11.546;2023-01-16T10:31:17;93612.50;;;6.15;59.49
29239;BME280;16267;48.194;11.546;2023-01-16T10:34:11;93609.47;;;6.26;59.62
29239;BME280;16267;48.194;11.546;2023-01-16T10:36:50;93610.63;;;6.38;56.91
29239;BME280;16267;48.194;11.546;2023-01-16T10:39:20;93593.69;;;6.32;57.30
29239;BME280;16267;48.194;11.546;2023-01-16T10:41:49;93581.34;;;6.38;56.89
29239;BME280;16267;48.194;11.546;2023-01-16T10:47:38;93556.28;;;6.35;56.03
29239;BME280;16267;48.194;11.546;2023-01-16T10:50:24;93545.91;;;6.50;57.29
29239;BME280;16267;48.194;11.546;2023-01-16T10:52:50;93543.28;;;6.59;55.64
29239;BME280;16267;48.194;11.546;2023-01-16T10:55:17;93539.72;;;6.75;56.11
29239;BME280;16267;48.194;11.546;2023-01-16T10:57:54;93539.00;;;7.06;54.50
29239;BME280;16267;48.194;11.546;2023-01-16T11:00:24;93526.06;;;6.95;53.31
29239;BME280;16267;48.194;11.546;2023-01-16T11:02:59;93534.31;;;6.66;52.41
29239;BME280;16267;48.194;11.546;2023-01-16T11:05:35;93523.66;;;6.66;53.72
29239;BME280;16267;48.194;11.546;2023-01-16T11:10:43;93508.97;;;7.14;53.32
29239;BME280;16267;48.194;11.546;2023-01-16T11:13:24;93503.88;;;7.79;52.86
29239;BME280;16267;48.194;11.546;2023-01-16T11:19:17;93484.50;;;8.15;49.71
29239;BME280;16267;48.194;11.546;2023-01-16T11:21:49;93474.69;;;8.12;50.93
29239;BME280;16267;48.194;11.546;2023-01-16T11:24:32;93472.47;;;8.47;49.03
29239;BME280;16267;48.194;11.546;2023-01-16T11:26:59;93460.16;;;8.50;47.65
29239;BME280;16267;48.194;11.546;2023-01-16T11:29:32;93460.59;;;8.39;48.58
29239;BME280;16267;48.194;11.546;2023-01-16T11:32:06;93445.00;;;8.29;47.38
29239;BME280;16267;48.194;11.546;2023-01-16T11:34:36;93438.47;;;8.20;48.43
29239;BME280;16267;48.194;11.546;2023-01-16T11:37:06;93429.25;;;8.21;48.31
29239;BME280;16267;48.194;11.546;2023-01-16T11:39:35;93419.91;;;8.08;48.40
29239;BME280;16267;48.194;11.546;2023-01-16T11:42:11;93420.06;;;8.04;48.74
29239;BME280;16267;48.194;11.546;2023-01-16T11:44:58;93412.66;;;7.99;49.50
29239;BME280;16267;48.194;11.546;2023-01-16T11:47:51;93411.00;;;7.83;49.16
29239;BME280;16267;48.194;11.546;2023-01-16T11:50:32;93391.72;;;7.88;49.32
29239;BME280;16267;48.194;11.546;2023-01-16T11:52:58;93375.09;;;7.84;49.45
29239;BME280;16267;48.194;11.546;2023-01-16T11:58:46;93351.81;;;7.57;49.94
29239;BME280;16267;48.194;11.546;2023-01-16T12:05:25;93350.91;;;7.42;51.13
29239;BME280;16267;48.194;11.546;2023-01-16T12:11:25;93346.72;;;7.31;50.33
29239;BME280;16267;48.194;11.546;2023-01-16T12:14:31;93352.06;;;7.22;51.20
29239;BME280;16267;48.194;11.546;2023-01-16T12:20:11;93348.03;;;7.18;51.44
29239;BME280;16267;48.194;11.546;2023-01-16T12:23:12;93342.28;;;7.19;51.30
29239;BME280;16267;48.194;11.546;2023-01-16T12:31:47;93327.47;;;7.18;51.56
29239;BME280;16267;48.194;11.546;2023-01-16T12:35:00;93323.59;;;7.19;50.70
29239;BME280;16267;48.194;11.546;2023-01-16T12:38:03;93322.13;;;7.18;50.61
29239;BME280;16267;48.194;11.546;2023-01-16T12:41:11;93326.69;;;7.08;50.93
29239;BME280;16267;48.194;11.546;2023-01-16T12:47:22;93312.59;;;6.99;51.36
29239;BME280;16267;48.194;11.546;2023-01-16T12:50:32;93309.31;;;6.95;50.81
29239;BME280;16267;48.194;11.546;2023-01-16T12:58:37;93311.69;;;6.92;51.59
29239;BME280;16267;48.194;11.546;2023-01-16T13:01:16;93309.94;;;6.99;51.54
29239;BME280;16267;48.194;11.546;2023-01-16T13:06:16;93306.81;;;7.00;51.31
29239;BME280;16267;48.194;11.546;2023-01-16T13:08:52;93306.97;;;6.97;51.70
29239;BME280;16267;48.194;11.546;2023-01-16T13:11:34;93301.63;;;6.97;51.72
29239;BME280;16267;48.194;11.546;2023-01-16T13:14:24;93306.97;;;6.97;51.92
29239;BME280;16267;48.194;11.546;2023-01-16T13:17:08;93314.06;;;7.00;52.10
29239;BME280;16267;48.194;11.546;2023-01-16T13:19:39;93341.94;;;6.99;52.94
29239;BME280;16267;48.194;11.546;2023-01-16T13:22:28;93349.31;;;6.95;53.22
29239;BME280;16267;48.194;11.546;2023-01-16T13:25:17;93333.63;;;6.97;53.26
29239;BME280;16267;48.194;11.546;2023-01-16T13:28:01;93345.75;;;6.98;53.13
29239;BME280;16267;48.194;11.546;2023-01-16T13:30:28;93353.00;;;6.88;53.02
29239;BME280;16267;48.194;11.546;2023-01-16T13:33:01;93347.38;;;6.86;52.66
29239;BME280;16267;48.194;11.546;2023-01-16T13:36:20;93340.28;;;6.92;54.01
29239;BME280;16267;48.194;11.546;2023-01-16T13:41:46;93331.09;;;6.93;53.83
29239;BME280;16267;48.194;11.546;2023-01-16T13:44:16;93330.66;;;6.95;53.77
29239;BME280;16267;48.194;11.546;2023-01-16T13:47:13;93323.69;;;6.97;53.80
29239;BME280;16267;48.194;11.546;2023-01-16T13:49:41;93317.78;;;7.02;54.35
29239;BME280;16267;48.194;11.546;2023-01-16T13:52:24;93324.75;;;7.00;54.39
29239;BME280;16267;48.194;11.546;2023-01-16T13:54:56;93310.53;;;7.03;53.67
29239;BME280;16267;48.194;11.546;2023-01-16T13:57:24;93305.03;;;7.06;54.26
29239;BME280;16267;48.194;11.546;2023-01-16T13:59:55;93311.41;;;7.09;54.77
29239;BME280;16267;48.194;11.546;2023-01-16T14:02:43;93316.31;;;7.10;53.58
29239;BME280;16267;48.194;11.546;2023-01-16T14:08:19;93311.56;;;7.05;52.98
29239;BME280;16267;48.194;11.546;2023-01-16T14:11:16;93304.31;;;7.06;53.84
29239;BME280;16267;48.194;11.546;2023-01-16T14:13:49;93308.91;;;7.05;53.63
29239;BME280;16267;48.194;11.546;2023-01-16T14:16:36;93306.53;;;7.07;54.55
29239;BME280;16267;48.194;11.546;2023-01-16T14:19:23;93303.41;;;7.09;54.44
29239;BME280;16267;48.194;11.546;2023-01-16T14:21:49;93298.81;;;7.09;54.67
29239;BME280;16267;48.194;11.546;2023-01-16T14:24:56;93297.81;;;7.07;54.12
29239;BME280;16267;48.194;11.546;2023-01-16T14:27:29;93300.00;;;7.08;54.90
29239;BME280;16267;48.194;11.546;2023-01-16T14:29:59;93307.84;;;7.03;53.56
29239;BME280;16267;48.194;11.546;2023-01-16T14:32:29;93302.81;;;6.96;53.20
29239;BME280;16267;48.194;11.546;2023-01-16T14:35:14;93306.34;;;6.92;53.80
29239;BME280;16267;48.194;11.546;2023-01-16T14:37:43;93298.66;;;6.95;54.43
29239;BME280;16267;48.194;11.546;2023-01-16T14:40:19;93262.81;;;6.96;54.86
29239;BME280;16267;48.194;11.546;2023-01-16T14:42:55;93267.69;;;6.97;54.51
29239;BME280;16267;48.194;11.546;2023-01-16T14:46:11;93283.84;;;6.93;52.55
29239;BME280;16267;48.194;11.546;2023-01-16T14:48:49;93276.13;;;6.86;52.64
29239;BME280;16267;48.194;11.546;2023-01-16T14:51:34;93281.13;;;6.84;52.56
29239;BME280;16267;48.194;11.546;2023-01-16T14:57:14;93274.78;;;6.82;52.84
29239;BME280;16267;48.194;11.546;2023-01-16T15:00:02;93272.97;;;6.79;51.89
29239;BME280;16267;48.194;11.546;2023-01-16T15:02:37;93259.81;;;6.75;51.02
29239;BME280;16267;48.194;11.546;2023-01-16T15:05:08;93257.28;;;6.72;50.47
29239;BME280;16267;48.194;11.546;2023-01-16T15:07:47;93249.28;;;6.72;51.08
29239;BME280;16267;48.194;11.546;2023-01-16T15:10:30;93250.91;;;6.69;51.11
29239;BME280;16267;48.194;11.546;2023-01-16T15:15:42;93254.78;;;6.68;51.86
29239;BME280;16267;48.194;11.546;2023-01-16T15:18:13;93256.97;;;6.60;49.92
29239;BME280;16267;48.194;11.546;2023-01-16T15:20:59;93256.63;;;6.49;49.21
29239;BME280;16267;48.194;11.546;2023-01-16T15:23:44;93261.97;;;6.49;51.13
29239;BME280;16267;48.194;11.546;2023-01-16T15:29:09;93251.00;;;6.47;51.20
29239;BME280;16267;48.194;11.546;2023-01-16T15:31:58;93256.75;;;6.45;49.32
29239;BME280;16267;48.194;11.546;2023-01-16T15:34:29;93257.03;;;6.38;48.90